KOSUKDLZ

Guest
Details From KOSU - OHIO STATE UNIVERSITY
To KDLZ - DELAWARE MUNI
Flight Number -
Tags generated
Created
Modified
Stats Distance 14 nm / 25 km
Max Altitude 1,200 ft / 366 m
Waypoints 3
Social Downloads 1
Likes 0
Share VATSIM

Download

Looking for another format? Having issues loading an existing format? Contact us
Advertisement - Login to hide

Notes

Basic altitude profile: - Ascent Rate: 2500ft/min - Ascent Speed: 250kts - Cruise Altitude: 35000ft - Cruise Speed: 420kts - Descent Rate: 1500ft/min - Descent Speed: 250kts Options: - Use NATs: no - Use PACOTS: no - Use low airways: yes - Use high airways: no

Route

KOSU DIPNE KDLZ

ID Type Via Altitude (ft/m) Position (lat/lon) Dist (leg/tot) Name
O KOSU APT - 0 / 0 40.08021 / -83.07298 - / 0 nm OHIO STATE UNIVERSITY
DIPNE FIX - 1,200 / 366 40.11329 / -83.13669 3 / 3 nm
O KDLZ APT - 0 / 0 40.27970 / -83.11480 10 / 13 nm DELAWARE MUNI

Altitude Profile

Advertisement - Login to hide

KOSU

Details ICAO KOSU (OSU)
Name Ohio State University - Don Scott Field
Region United States
Timezone America/New_York (UTC-5.0)
Stats Elevation 904 ft / 276 m (AMSL)
Location 40.079800° -83.073200°
Runways 3
Magnetic Variation 7.124° W

METAR

KOSU 191453Z 12006KT 10SM CLR 01/M03 A3005 RMK AO2 PRESFR SLP186 T00061028 58005

Decode

TAF

Not found

Departure Runways

ID Width Length Bearing (true/mag) Surface Threshold Overrun Markings Lighting
05 100 ft / 30 m 3,561 ft / 1,086 m 48.63° / 55.76° ASPHALT 0 ft / 0 m 0 ft / 0 m VISUAL EDGE THRESHOLD
09L 100 ft / 30 m 2,985 ft / 910 m 87.04° / 94.16° ASPHALT 0 ft / 0 m 0 ft / 0 m VISUAL EDGE THRESHOLD
09R 100 ft / 30 m 4,992 ft / 1,522 m 87.04° / 94.17° ASPHALT 0 ft / 0 m 194 ft / 59 m PREC-APP CENTERLINE EDGE THRESHOLD MALSR
23 100 ft / 30 m 3,561 ft / 1,086 m 228.64° / 235.76° ASPHALT 0 ft / 0 m 0 ft / 0 m VISUAL EDGE THRESHOLD
27L 100 ft / 30 m 4,992 ft / 1,522 m 267.06° / 274.18° ASPHALT 0 ft / 0 m 197 ft / 60 m APP CENTERLINE EDGE THRESHOLD REIL-OMNI
27R 100 ft / 30 m 2,985 ft / 910 m 267.05° / 274.17° ASPHALT 0 ft / 0 m 0 ft / 0 m VISUAL EDGE THRESHOLD

KDLZ

Details ICAO KDLZ
Name Delaware Municipal
Region United States
Timezone America/New_York (UTC-5.0)
Stats Elevation 943 ft / 287 m (AMSL)
Location 40.279700° -83.114800°
Runways 1
Magnetic Variation 7.130° W

METAR

KDLZ 191455Z AUTO 15007KT 10SM CLR 00/M01 A3005 RMK AO2

Decode

TAF

Not found

Destination Runways

ID Width Length Bearing (true/mag) Surface Threshold Overrun Markings Lighting
10 100 ft / 30 m 4,989 ft / 1,521 m 98.37° / 105.50° ASPHALT 0 ft / 0 m 0 ft / 0 m APP EDGE THRESHOLD REIL-OMNI
28 100 ft / 30 m 4,989 ft / 1,521 m 278.38° / 285.51° ASPHALT 0 ft / 0 m 0 ft / 0 m APP EDGE THRESHOLD REIL-OMNI